createdAt,value
2019-04-07T00:00:57.022Z,11.06
2019-04-07T00:01:57.319Z,11.11
2019-04-07T00:02:56.867Z,11.14
2019-04-07T00:03:56.734Z,11.02
2019-04-07T00:04:57.333Z,10.92
2019-04-07T00:05:57.735Z,10.89
2019-04-07T00:06:58.748Z,10.89
2019-04-07T00:07:56.725Z,10.88
2019-04-07T00:08:56.682Z,10.82
2019-04-07T00:09:57.493Z,10.86
2019-04-07T00:10:56.671Z,10.85
2019-04-07T00:11:56.692Z,10.81
2019-04-07T00:12:57.520Z,10.81
2019-04-07T00:13:57.904Z,10.74
2019-04-07T00:14:56.620Z,10.74
2019-04-07T00:15:56.618Z,10.78
2019-04-07T00:16:56.954Z,10.79
2019-04-07T00:17:56.615Z,10.73
2019-04-07T00:18:56.870Z,10.70
2019-04-07T00:19:56.994Z,10.66
2019-04-07T00:20:56.609Z,10.60
2019-04-07T00:21:56.756Z,10.55
2019-04-07T00:22:57.308Z,10.48
2019-04-07T00:23:56.526Z,10.36
2019-04-07T00:24:56.522Z,10.29
2019-04-07T00:25:57.040Z,10.18
2019-04-07T00:26:56.626Z,10.14
2019-04-07T00:27:56.493Z,10.11
2019-04-07T00:28:56.572Z,10.12
2019-04-07T00:29:57.883Z,10.11
2019-04-07T00:30:56.452Z,10.07
2019-04-07T00:31:57.454Z,10.08
2019-04-07T00:32:56.440Z,10.09
2019-04-07T00:33:56.438Z,10.09
2019-04-07T00:34:56.884Z,10.08
2019-04-07T00:35:56.833Z,10.09
2019-04-07T00:36:56.614Z,10.11
2019-04-07T00:37:56.385Z,10.12
2019-04-07T00:38:56.382Z,10.15
2019-04-07T00:39:56.688Z,10.15
2019-04-07T00:40:57.727Z,10.15
2019-04-07T00:41:56.631Z,10.20
2019-04-07T00:42:56.706Z,10.20
2019-04-07T00:43:56.324Z,10.25
2019-04-07T00:44:56.345Z,10.23
2019-04-07T00:45:56.985Z,10.25
2019-04-07T00:46:56.323Z,10.23
2019-04-07T00:47:56.799Z,10.25
2019-04-07T00:48:56.281Z,10.20
2019-04-07T00:49:56.271Z,10.17
2019-04-07T00:50:56.256Z,10.12
2019-04-07T00:51:56.261Z,10.09
2019-04-07T00:52:56.231Z,10.07
2019-04-07T00:53:56.240Z,10.07
2019-04-07T00:54:57.525Z,10.05
2019-04-07T00:55:56.287Z,10.08
2019-04-07T00:56:57.750Z,10.08
2019-04-07T00:57:56.217Z,10.11
2019-04-07T00:58:56.177Z,10.11
2019-04-07T00:59:57.029Z,10.09
2019-04-07T01:00:56.372Z,10.09
2019-04-07T01:01:56.742Z,10.09
2019-04-07T01:02:56.766Z,10.09
2019-04-07T01:03:56.823Z,10.07
2019-04-07T01:04:56.174Z,10.05
2019-04-07T01:05:56.141Z,10.01
2019-04-07T01:06:56.867Z,10.02
2019-04-07T01:07:56.417Z,10.02
2019-04-07T01:08:56.880Z,10.04
2019-04-07T01:09:56.052Z,10.02
2019-04-07T01:10:56.043Z,10.04
2019-04-07T01:11:56.100Z,9.96
2019-04-07T01:12:56.422Z,10.01
2019-04-07T01:13:56.019Z,10.04
2019-04-07T01:14:56.562Z,10.07
2019-04-07T01:15:56.077Z,10.04
2019-04-07T01:16:56.185Z,10.02
2019-04-07T01:17:56.129Z,10.05
2019-04-07T01:18:56.002Z,10.07
2019-04-07T01:19:56.081Z,10.08
2019-04-07T01:20:55.947Z,10.01
2019-04-07T01:21:55.956Z,10.05
2019-04-07T01:22:56.145Z,10.05
2019-04-07T01:23:55.994Z,10.04
2019-04-07T01:24:56.013Z,10.04
2019-04-07T01:25:57.213Z,9.94
2019-04-07T01:26:55.903Z,9.90
2019-04-07T01:27:55.861Z,9.89
2019-04-07T01:28:55.864Z,9.87
2019-04-07T01:29:56.413Z,9.90
2019-04-07T01:30:55.831Z,9.83
2019-04-07T01:31:56.026Z,9.81
2019-04-07T01:32:56.325Z,9.86
2019-04-07T01:33:56.404Z,9.76
2019-04-07T01:34:55.930Z,9.75
2019-04-07T01:35:57.145Z,9.79
2019-04-07T01:36:55.778Z,9.79
2019-04-07T01:37:56.134Z,9.79
2019-04-07T01:38:55.750Z,9.78
2019-04-07T01:39:55.737Z,9.75
2019-04-07T01:40:56.554Z,9.74
2019-04-07T01:41:56.235Z,9.71
2019-04-07T01:42:56.375Z,9.69
2019-04-07T01:43:55.871Z,9.65
2019-04-07T01:44:57.300Z,9.65
2019-04-07T01:45:55.680Z,9.58
2019-04-07T01:46:55.987Z,9.58
2019-04-07T01:47:55.683Z,9.57
2019-04-07T01:48:56.401Z,9.57
2019-04-07T01:49:55.689Z,9.53
2019-04-07T01:50:55.629Z,9.54
2019-04-07T01:51:55.621Z,9.53
2019-04-07T01:52:55.629Z,9.54
2019-04-07T01:53:56.347Z,9.53
2019-04-07T01:54:55.941Z,9.51
2019-04-07T01:55:55.576Z,9.51
2019-04-07T01:56:55.566Z,9.50
2019-04-07T01:57:55.589Z,9.46
2019-04-07T01:58:56.159Z,9.54
2019-04-07T01:59:55.703Z,9.57
2019-04-07T02:00:55.526Z,9.54
2019-04-07T02:01:55.514Z,9.48
2019-04-07T02:02:55.558Z,9.48
2019-04-07T02:03:56.202Z,9.48
2019-04-07T02:04:55.517Z,9.53
2019-04-07T02:05:59.840Z,9.54
2019-04-07T02:06:56.477Z,9.47
2019-04-07T02:07:55.491Z,9.56
2019-04-07T02:08:55.745Z,9.56
2019-04-07T02:09:55.652Z,9.54
2019-04-07T02:10:55.943Z,9.53
2019-04-07T02:11:55.554Z,9.51
2019-04-07T02:12:56.644Z,9.51
2019-04-07T02:13:55.813Z,9.51
2019-04-07T02:14:55.377Z,9.50
2019-04-07T02:15:56.024Z,9.48
2019-04-07T02:16:55.390Z,9.48
2019-04-07T02:17:55.940Z,9.47
2019-04-07T02:18:55.452Z,9.43
2019-04-07T02:19:55.945Z,9.42
2019-04-07T02:20:55.316Z,9.38
2019-04-07T02:21:55.760Z,9.36
2019-04-07T02:22:55.321Z,9.35
2019-04-07T02:23:55.935Z,9.35
2019-04-07T02:24:56.734Z,9.26
2019-04-07T02:25:55.911Z,9.23
2019-04-07T02:26:55.253Z,9.26
2019-04-07T02:27:55.696Z,9.28
2019-04-07T02:28:55.230Z,9.24
2019-04-07T02:29:55.417Z,9.24
2019-04-07T02:30:55.212Z,9.26
2019-04-07T02:31:55.228Z,9.26
2019-04-07T02:32:55.594Z,9.24
2019-04-07T02:33:55.180Z,9.20
2019-04-07T02:34:55.325Z,9.20
2019-04-07T02:35:56.024Z,9.21
2019-04-07T02:36:56.042Z,9.20
2019-04-07T02:37:55.177Z,9.20
2019-04-07T02:38:56.103Z,9.18
2019-04-07T02:40:03.343Z,9.17
2019-04-07T02:40:55.698Z,9.15
2019-04-07T02:41:55.103Z,9.14
2019-04-07T02:42:55.864Z,9.13
2019-04-07T02:43:55.623Z,9.10
2019-04-07T02:44:55.094Z,9.10
2019-04-07T02:45:56.638Z,9.08
2019-04-07T02:46:56.771Z,9.05
2019-04-07T02:47:55.068Z,9.02
2019-04-07T02:48:55.025Z,9.01
2019-04-07T02:49:55.886Z,8.99
2019-04-07T02:50:55.783Z,8.99
2019-04-07T02:51:55.011Z,8.99
2019-04-07T02:52:55.012Z,9.01
2019-04-07T02:53:55.275Z,9.01
2019-04-07T02:54:55.196Z,9.01
2019-04-07T02:55:55.129Z,9.02
2019-04-07T02:56:54.942Z,9.01
2019-04-07T02:57:56.158Z,9.02
2019-04-07T02:58:55.047Z,8.99
2019-04-07T02:59:55.774Z,9.01
2019-04-07T03:00:54.904Z,9.02
2019-04-07T03:01:55.281Z,8.99
2019-04-07T03:02:55.809Z,8.99
2019-04-07T03:03:55.552Z,8.98
2019-04-07T03:04:54.855Z,8.92
2019-04-07T03:05:54.853Z,8.89
2019-04-07T03:06:54.848Z,8.84
2019-04-07T03:07:54.994Z,8.83
2019-04-07T03:08:56.002Z,8.79
2019-04-07T03:09:54.813Z,8.76
2019-04-07T03:10:55.469Z,8.76
2019-04-07T03:11:54.789Z,8.70
2019-04-07T03:12:54.826Z,8.73
2019-04-07T03:13:54.768Z,8.73
2019-04-07T03:14:54.771Z,8.68
2019-04-07T03:15:54.773Z,8.61
2019-04-07T03:16:55.736Z,8.48
2019-04-07T03:17:54.759Z,8.52
2019-04-07T03:18:54.824Z,8.45
2019-04-07T03:19:54.707Z,8.50
2019-04-07T03:20:55.642Z,8.45
2019-04-07T03:21:55.493Z,8.47
2019-04-07T03:22:54.934Z,8.44
2019-04-07T03:23:54.665Z,8.50
2019-04-07T03:24:55.350Z,8.48
2019-04-07T03:25:54.915Z,8.58
2019-04-07T03:26:55.675Z,8.61
2019-04-07T03:27:54.711Z,8.62
2019-04-07T03:28:54.613Z,8.63
2019-04-07T03:29:55.369Z,8.63
2019-04-07T03:30:56.622Z,8.61
2019-04-07T03:31:56.780Z,8.65
2019-04-07T03:32:55.118Z,8.66
2019-04-07T03:33:56.451Z,8.63
2019-04-07T03:34:56.362Z,8.65
2019-04-07T03:35:56.914Z,8.62
2019-04-07T03:37:19.133Z,8.56
2019-04-07T03:37:55.538Z,8.52
2019-04-07T03:38:54.511Z,8.47
2019-04-07T03:39:54.504Z,8.44
2019-04-07T03:40:55.024Z,8.41
2019-04-07T03:41:55.475Z,8.38
2019-04-07T03:42:55.296Z,8.34
2019-04-07T03:43:55.906Z,8.29
2019-04-07T03:44:54.442Z,8.25
2019-04-07T03:45:55.037Z,8.22
2019-04-07T03:46:55.177Z,8.19
2019-04-07T03:47:54.650Z,8.19
2019-04-07T03:48:54.431Z,8.16
2019-04-07T03:49:55.062Z,8.19
2019-04-07T03:50:54.800Z,8.18
2019-04-07T03:51:54.362Z,8.16
2019-04-07T03:52:54.521Z,8.15
2019-04-07T03:53:54.391Z,8.15
2019-04-07T03:54:54.841Z,8.12
2019-04-07T03:55:54.951Z,8.11
2019-04-07T03:56:54.356Z,8.08
2019-04-07T03:57:54.897Z,8.08
2019-04-07T03:58:54.335Z,8.10
2019-04-07T03:59:54.282Z,8.10
2019-04-07T04:00:54.965Z,8.10
2019-04-07T04:01:54.356Z,8.11
2019-04-07T04:02:54.829Z,8.11
2019-04-07T04:03:54.275Z,8.10
2019-04-07T04:04:54.232Z,8.15
2019-04-07T04:05:55.019Z,8.11
2019-04-07T04:06:54.708Z,8.12
2019-04-07T04:07:54.632Z,8.18
2019-04-07T04:08:54.973Z,8.18
2019-04-07T04:09:55.785Z,8.12
2019-04-07T04:10:54.233Z,8.18
2019-04-07T04:11:54.162Z,8.20
2019-04-07T04:12:54.147Z,8.11
2019-04-07T04:13:54.839Z,8.07
2019-04-07T04:14:55.080Z,8.00
2019-04-07T04:15:54.126Z,7.86
2019-04-07T04:16:55.166Z,7.82
2019-04-07T04:17:55.216Z,7.83
2019-04-07T04:18:54.124Z,7.86
2019-04-07T04:19:54.081Z,7.79
2019-04-07T04:20:54.319Z,7.85
2019-04-07T04:21:54.378Z,7.86
2019-04-07T04:22:54.719Z,7.89
2019-04-07T04:23:54.894Z,7.90
2019-04-07T04:24:54.025Z,7.92
2019-04-07T04:25:54.019Z,7.95
2019-04-07T04:26:54.050Z,7.87
2019-04-07T04:27:55.025Z,7.89
2019-04-07T04:28:54.011Z,7.85
2019-04-07T04:29:55.219Z,7.74
2019-04-07T04:30:53.973Z,7.67
2019-04-07T04:31:54.657Z,7.64
2019-04-07T04:32:54.248Z,7.61
2019-04-07T04:33:54.463Z,7.57
2019-04-07T04:34:54.650Z,7.64
2019-04-07T04:35:54.607Z,7.69
2019-04-07T04:36:54.504Z,7.68
2019-04-07T04:37:54.961Z,7.58
2019-04-07T04:38:54.165Z,7.57
2019-04-07T04:39:54.167Z,7.57
2019-04-07T04:40:53.896Z,7.55
2019-04-07T04:41:53.860Z,7.55
2019-04-07T04:42:54.933Z,7.60
2019-04-07T04:43:54.641Z,7.67
2019-04-07T04:44:54.605Z,7.69
2019-04-07T04:45:54.613Z,7.71
2019-04-07T04:46:53.795Z,7.74
2019-04-07T04:47:53.825Z,7.75
2019-04-07T04:48:55.274Z,7.72
2019-04-07T04:49:53.761Z,7.77
2019-04-07T04:50:53.757Z,7.80
2019-04-07T04:51:54.232Z,7.80
2019-04-07T04:52:54.541Z,7.80
2019-04-07T04:53:53.789Z,7.86
2019-04-07T04:54:53.766Z,7.92
2019-04-07T04:55:53.722Z,7.93
2019-04-07T04:56:54.216Z,7.92
2019-04-07T04:57:54.498Z,7.93
2019-04-07T04:58:54.492Z,7.95
2019-04-07T04:59:54.034Z,7.97
2019-04-07T05:00:54.696Z,7.97
2019-04-07T05:01:53.846Z,8.02
2019-04-07T05:02:53.729Z,8.11
2019-04-07T05:03:53.938Z,8.19
2019-04-07T05:04:53.647Z,8.22
2019-04-07T05:05:53.600Z,8.23
2019-04-07T05:06:53.721Z,8.19
2019-04-07T05:08:00.207Z,8.20
2019-04-07T05:08:54.649Z,8.19
2019-04-07T05:09:55.653Z,8.25
2019-04-07T05:10:53.647Z,8.29
2019-04-07T05:11:53.983Z,8.36
2019-04-07T05:12:53.700Z,8.38
2019-04-07T05:13:53.534Z,8.41
2019-04-07T05:14:53.658Z,8.43
2019-04-07T05:15:53.769Z,8.43
2019-04-07T05:16:53.474Z,8.43
2019-04-07T05:17:53.862Z,8.41
2019-04-07T05:18:54.084Z,8.41
2019-04-07T05:19:53.487Z,8.41
2019-04-07T05:20:53.443Z,8.40
2019-04-07T05:21:53.428Z,8.37
2019-04-07T05:22:53.482Z,8.37
2019-04-07T05:23:54.980Z,8.37
2019-04-07T05:24:53.455Z,8.34
2019-04-07T05:25:53.558Z,8.30
2019-04-07T05:26:54.105Z,8.29
2019-04-07T05:27:53.683Z,8.29
2019-04-07T05:28:53.854Z,8.29
2019-04-07T05:29:54.523Z,8.29
2019-04-07T05:30:54.278Z,8.30
2019-04-07T05:31:54.072Z,8.33
2019-04-07T05:32:53.498Z,8.33
2019-04-07T05:33:54.104Z,8.36
2019-04-07T05:34:53.373Z,8.36
2019-04-07T05:35:53.350Z,8.38
2019-04-07T05:36:53.396Z,8.40
2019-04-07T05:38:01.845Z,8.45
2019-04-07T05:38:54.857Z,8.50
2019-04-07T05:39:53.777Z,8.53
2019-04-07T05:40:53.229Z,8.56
2019-04-07T05:41:53.641Z,8.61
2019-04-07T05:42:53.229Z,8.61
2019-04-07T05:43:54.600Z,8.65
2019-04-07T05:44:53.630Z,8.68
2019-04-07T05:45:53.198Z,8.70
2019-04-07T05:46:53.697Z,8.73
2019-04-07T05:47:53.495Z,8.73
2019-04-07T05:48:53.259Z,8.76
2019-04-07T05:49:57.398Z,8.77
2019-04-07T05:50:56.107Z,8.80
2019-04-07T05:51:53.384Z,8.86
2019-04-07T05:52:53.205Z,8.94
2019-04-07T05:53:53.844Z,8.96
2019-04-07T05:54:53.407Z,9.01
2019-04-07T05:55:54.136Z,9.05
2019-04-07T05:56:53.414Z,9.11
2019-04-07T05:57:53.225Z,9.18
2019-04-07T05:58:53.623Z,9.28
2019-04-07T05:59:53.716Z,9.33
2019-04-07T06:00:53.367Z,9.42
2019-04-07T06:01:58.460Z,9.50
2019-04-07T06:02:54.100Z,9.54
2019-04-07T06:03:53.373Z,9.60
2019-04-07T06:04:53.492Z,9.66
2019-04-07T06:05:52.983Z,9.74
2019-04-07T06:06:55.313Z,9.78
2019-04-07T06:07:53.907Z,9.87
2019-04-07T06:08:53.941Z,9.93
2019-04-07T06:09:53.481Z,9.99
2019-04-07T06:10:57.516Z,10.04
2019-04-07T06:11:54.479Z,10.09
2019-04-07T06:12:53.139Z,10.14
2019-04-07T06:13:53.412Z,10.18
2019-04-07T06:14:52.905Z,10.23
2019-04-07T06:15:53.221Z,10.26
2019-04-07T06:16:55.480Z,10.34
2019-04-07T06:17:56.196Z,10.40
2019-04-07T06:18:53.866Z,10.44
2019-04-07T06:19:54.227Z,10.48
2019-04-07T06:20:53.744Z,10.56
2019-04-07T06:21:53.264Z,10.63
2019-04-07T06:22:53.815Z,10.67
2019-04-07T06:23:58.435Z,10.73
2019-04-07T06:24:54.772Z,10.79
2019-04-07T06:25:56.864Z,10.76
2019-04-07T06:26:53.310Z,10.84
2019-04-07T06:27:53.239Z,10.91
2019-04-07T06:28:57.368Z,10.94
2019-04-07T06:29:57.193Z,10.99
2019-04-07T06:30:54.306Z,10.99
2019-04-07T06:31:52.826Z,11.00
2019-04-07T06:32:52.854Z,11.04
2019-04-07T06:33:54.917Z,11.14
2019-04-07T06:34:53.091Z,11.18
2019-04-07T06:35:54.930Z,11.27
2019-04-07T06:36:55.251Z,11.35
2019-04-07T06:37:53.104Z,11.35
2019-04-07T06:38:53.638Z,11.39
2019-04-07T06:39:52.650Z,11.40
2019-04-07T06:40:56.483Z,11.36
2019-04-07T06:41:53.485Z,11.42
2019-04-07T06:42:53.202Z,11.37
2019-04-07T06:43:52.800Z,11.36
2019-04-07T06:44:53.345Z,11.39
2019-04-07T06:45:54.239Z,11.44
2019-04-07T06:46:52.549Z,11.43
2019-04-07T06:47:53.431Z,11.42
2019-04-07T06:48:53.903Z,11.40
2019-04-07T06:49:53.566Z,11.42
2019-04-07T06:50:57.793Z,11.40
2019-04-07T06:51:54.521Z,11.40
2019-04-07T06:52:53.114Z,11.52
2019-04-07T06:53:52.500Z,11.61
2019-04-07T06:54:56.001Z,11.69
2019-04-07T06:55:52.467Z,11.78
2019-04-07T06:56:52.442Z,11.88
2019-04-07T06:57:52.628Z,12.02
2019-04-07T06:58:53.181Z,12.16
2019-04-07T06:59:52.499Z,12.21
2019-04-07T07:00:55.074Z,12.28
2019-04-07T07:01:55.587Z,12.35
2019-04-07T07:02:52.396Z,12.29
2019-04-07T07:03:53.027Z,12.23
2019-04-07T07:04:52.635Z,12.19
2019-04-07T07:05:52.612Z,12.19
2019-04-07T07:06:52.585Z,12.23
2019-04-07T07:07:53.052Z,12.32
2019-04-07T07:08:54.198Z,12.34
2019-04-07T07:09:52.356Z,12.34
2019-04-07T07:10:53.105Z,12.39
2019-04-07T07:11:52.290Z,12.37
2019-04-07T07:12:52.304Z,12.32
2019-04-07T07:13:54.369Z,12.39
2019-04-07T07:14:56.125Z,12.42
2019-04-07T07:15:53.876Z,12.45
2019-04-07T07:16:53.415Z,12.49
2019-04-07T07:17:56.987Z,12.54
2019-04-07T07:18:56.098Z,12.64
2019-04-07T07:19:58.601Z,12.65
2019-04-07T07:20:52.689Z,12.68
2019-04-07T07:21:53.211Z,12.78
2019-04-07T07:22:52.653Z,12.89
2019-04-07T07:23:52.506Z,12.93
2019-04-07T07:24:55.736Z,12.97
2019-04-07T07:25:53.149Z,13.03
2019-04-07T07:26:52.865Z,13.17
2019-04-07T07:27:52.381Z,13.17
2019-04-07T07:28:52.171Z,13.36
2019-04-07T07:29:53.728Z,13.46
2019-04-07T07:30:52.883Z,13.57
2019-04-07T07:31:53.248Z,13.52
2019-04-07T07:32:53.053Z,13.62
2019-04-07T07:33:52.793Z,13.71
2019-04-07T07:34:52.751Z,13.67
2019-04-07T07:35:52.682Z,13.78
2019-04-07T07:36:54.760Z,13.69
2019-04-07T07:37:53.633Z,13.70
2019-04-07T07:38:59.031Z,13.82
2019-04-07T07:39:53.019Z,13.81
2019-04-07T07:40:52.619Z,13.88
2019-04-07T07:41:52.806Z,13.96
2019-04-07T07:42:56.150Z,14.00
2019-04-07T07:43:53.564Z,14.00
2019-04-07T07:44:52.492Z,14.07
2019-04-07T07:45:52.255Z,14.18
2019-04-07T07:46:52.735Z,14.20
2019-04-07T07:47:54.002Z,14.24
2019-04-07T07:48:54.080Z,14.40
2019-04-07T07:49:53.656Z,14.36
2019-04-07T07:50:51.882Z,14.24
2019-04-07T07:51:51.852Z,14.27
2019-04-07T07:52:53.749Z,14.33
2019-04-07T07:53:52.616Z,14.33
2019-04-07T07:54:51.936Z,14.33
2019-04-07T07:55:51.854Z,14.29
2019-04-07T07:56:52.524Z,14.39
2019-04-07T07:57:56.740Z,14.50
2019-04-07T07:58:53.017Z,14.73
2019-04-07T07:59:52.083Z,14.73
2019-04-07T08:00:52.514Z,14.80
2019-04-07T08:01:52.561Z,15.02
2019-04-07T08:02:53.528Z,15.17
2019-04-07T08:03:52.995Z,15.20
2019-04-07T08:04:52.760Z,15.21
2019-04-07T08:05:52.270Z,15.32
2019-04-07T08:06:52.262Z,15.51
2019-04-07T08:07:51.694Z,15.65
2019-04-07T08:08:51.674Z,15.72
2019-04-07T08:09:54.411Z,15.68
2019-04-07T08:10:51.754Z,15.64
2019-04-07T08:11:52.649Z,15.59
2019-04-07T08:12:51.941Z,15.50
2019-04-07T08:13:51.629Z,15.64
2019-04-07T08:14:55.277Z,15.76
2019-04-07T08:15:54.572Z,15.80
2019-04-07T08:16:52.382Z,15.92
2019-04-07T08:17:52.097Z,16.01
2019-04-07T08:18:52.123Z,16.04
2019-04-07T08:19:52.356Z,16.25
2019-04-07T08:20:52.226Z,16.20
2019-04-07T08:21:52.042Z,16.25
2019-04-07T08:22:51.596Z,16.41
2019-04-07T08:23:51.521Z,16.33
2019-04-07T08:24:52.012Z,16.41
2019-04-07T08:25:54.533Z,16.31
2019-04-07T08:26:54.009Z,16.39
2019-04-07T08:27:51.474Z,16.58
2019-04-07T08:28:51.534Z,16.71
2019-04-07T08:29:51.471Z,16.68
2019-04-07T08:30:51.608Z,16.66
2019-04-07T08:31:54.013Z,16.79
2019-04-07T08:32:51.462Z,17.03
2019-04-07T08:33:52.675Z,17.38
2019-04-07T08:34:52.068Z,17.28
2019-04-07T08:35:54.210Z,17.25
2019-04-07T08:36:51.954Z,17.19
2019-04-07T08:37:51.372Z,17.41
2019-04-07T08:38:53.962Z,17.58
2019-04-07T08:39:51.952Z,17.70
2019-04-07T08:40:54.070Z,17.87
2019-04-07T08:41:58.429Z,17.82
2019-04-07T08:42:52.144Z,17.84
2019-04-07T08:43:55.322Z,17.95
2019-04-07T08:44:52.363Z,18.03
2019-04-07T08:45:51.489Z,17.89
2019-04-07T08:46:51.873Z,18.17
2019-04-07T08:47:52.522Z,18.03
2019-04-07T08:48:54.300Z,17.81
2019-04-07T08:49:51.446Z,17.78
2019-04-07T08:50:51.834Z,17.77
2019-04-07T08:51:51.214Z,17.95
2019-04-07T08:52:52.201Z,17.86
2019-04-07T08:53:51.727Z,17.95
2019-04-07T08:54:52.681Z,17.92
2019-04-07T08:55:54.467Z,17.92
2019-04-07T08:56:51.173Z,18.02
2019-04-07T08:57:51.654Z,18.12
2019-04-07T08:58:51.164Z,18.18
2019-04-07T08:59:51.434Z,18.44
2019-04-07T09:00:53.592Z,18.42
2019-04-07T09:01:54.154Z,18.37
2019-04-07T09:03:01.765Z,18.37
2019-04-07T09:03:52.705Z,18.44
2019-04-07T09:04:52.445Z,18.25
2019-04-07T09:05:51.426Z,18.15
2019-04-07T09:06:51.069Z,18.35
2019-04-07T09:07:51.801Z,18.55
2019-04-07T09:08:51.104Z,18.82
2019-04-07T09:09:51.427Z,18.78
2019-04-07T09:10:51.705Z,18.65
2019-04-07T09:11:54.136Z,18.60
2019-04-07T09:12:51.053Z,18.81
2019-04-07T09:13:52.541Z,18.85
2019-04-07T09:14:51.417Z,18.98
2019-04-07T09:15:50.994Z,18.81
2019-04-07T09:16:54.795Z,18.78
2019-04-07T09:17:50.951Z,19.04
2019-04-07T09:18:53.650Z,19.08
2019-04-07T09:19:54.372Z,19.25
2019-04-07T09:20:51.873Z,19.25
2019-04-07T09:21:52.026Z,19.54
2019-04-07T09:22:53.255Z,19.43
2019-04-07T09:23:50.881Z,19.48
2019-04-07T09:24:50.895Z,19.04
2019-04-07T09:25:51.696Z,18.84
2019-04-07T09:26:51.121Z,19.22
2019-04-07T09:27:51.150Z,19.28
2019-04-07T09:28:55.461Z,19.22
2019-04-07T09:29:51.240Z,19.14
2019-04-07T09:30:50.886Z,19.22
2019-04-07T09:31:51.835Z,19.37
2019-04-07T09:32:51.154Z,19.48
2019-04-07T09:33:50.808Z,19.56
2019-04-07T09:34:53.105Z,19.66
2019-04-07T09:35:50.996Z,19.69
2019-04-07T09:36:51.406Z,19.86
2019-04-07T09:37:53.319Z,20.10
2019-04-07T09:38:52.368Z,20.03
2019-04-07T09:39:56.910Z,20.08
2019-04-07T09:40:51.742Z,19.94
2019-04-07T09:41:54.717Z,19.87
2019-04-07T09:42:50.806Z,19.63
2019-04-07T09:43:51.809Z,19.88
2019-04-07T09:44:51.658Z,19.63
2019-04-07T09:45:51.777Z,19.58
2019-04-07T09:46:51.462Z,19.66
2019-04-07T09:47:51.198Z,19.63
2019-04-07T09:48:52.713Z,19.58
2019-04-07T09:49:56.213Z,19.61
2019-04-07T09:50:54.397Z,19.61
2019-04-07T09:51:50.589Z,19.73
2019-04-07T09:52:50.582Z,19.81
2019-04-07T09:53:50.818Z,19.51
2019-04-07T09:54:52.939Z,19.47
2019-04-07T09:55:50.569Z,19.43
2019-04-07T09:56:50.838Z,19.50
2019-04-07T09:57:50.705Z,20.05
2019-04-07T09:58:51.451Z,20.31
2019-04-07T09:59:52.470Z,20.33
2019-04-07T10:00:55.246Z,20.23
2019-04-07T10:01:51.921Z,19.92
2019-04-07T10:02:51.582Z,20.05
2019-04-07T10:03:50.467Z,19.81
2019-04-07T10:04:50.455Z,19.86
2019-04-07T10:05:51.260Z,20.14
2019-04-07T10:06:50.464Z,20.18
2019-04-07T10:07:50.940Z,19.99
2019-04-07T10:08:51.262Z,19.81
2019-04-07T10:09:51.259Z,20.05
2019-04-07T10:10:51.410Z,19.91
2019-04-07T10:11:50.833Z,19.76
2019-04-07T10:12:51.133Z,19.73
2019-04-07T10:13:51.262Z,19.83
2019-04-07T10:14:50.349Z,19.80
2019-04-07T10:15:50.989Z,19.50
2019-04-07T10:16:50.699Z,19.48
2019-04-07T10:17:51.775Z,19.83
2019-04-07T10:18:52.130Z,20.11
2019-04-07T10:19:50.297Z,20.18
2019-04-07T10:20:50.355Z,20.48
2019-04-07T10:21:50.972Z,20.39
2019-04-07T10:22:50.589Z,20.42
2019-04-07T10:23:50.886Z,20.42
2019-04-07T10:24:50.240Z,20.11
2019-04-07T10:25:50.733Z,20.20
2019-04-07T10:26:50.324Z,20.32
2019-04-07T10:27:52.019Z,20.13
2019-04-07T10:28:51.651Z,20.18
2019-04-07T10:29:50.328Z,20.16
2019-04-07T10:30:50.181Z,20.08
2019-04-07T10:31:50.200Z,20.06
2019-04-07T10:32:50.161Z,20.03
2019-04-07T10:33:51.218Z,20.32
2019-04-07T10:34:50.949Z,20.33
2019-04-07T10:35:50.134Z,20.21
2019-04-07T10:36:51.700Z,20.10
2019-04-07T10:37:51.330Z,20.38
2019-04-07T10:38:50.832Z,20.48
2019-04-07T10:39:50.117Z,20.62
2019-04-07T10:40:50.346Z,20.76
2019-04-07T10:41:50.723Z,20.94
2019-04-07T10:42:50.202Z,20.89
2019-04-07T10:43:50.347Z,20.87
2019-04-07T10:44:50.450Z,20.36
2019-04-07T10:45:50.547Z,20.42
2019-04-07T10:46:50.435Z,20.24
2019-04-07T10:47:50.213Z,20.59
2019-04-07T10:48:49.993Z,20.32
2019-04-07T10:49:59.252Z,20.05
2019-04-07T10:50:51.846Z,20.47
2019-04-07T10:51:50.008Z,20.33
2019-04-07T10:52:50.335Z,20.42
2019-04-07T10:53:51.096Z,20.74
2019-04-07T10:54:49.934Z,20.50
2019-04-07T10:55:49.922Z,20.70
2019-04-07T10:56:49.947Z,20.92
2019-04-07T10:57:50.568Z,20.57
2019-04-07T10:58:50.038Z,20.13
2019-04-07T10:59:49.871Z,19.94
2019-04-07T11:00:51.192Z,19.88
2019-04-07T11:01:50.177Z,19.87
2019-04-07T11:02:52.817Z,19.73
2019-04-07T11:03:53.739Z,20.06
2019-04-07T11:04:50.694Z,19.84
2019-04-07T11:05:50.412Z,19.99
2019-04-07T11:06:51.721Z,19.58
2019-04-07T11:07:50.392Z,19.48
2019-04-07T11:08:49.816Z,19.33
2019-04-07T11:09:49.768Z,19.07
2019-04-07T11:10:49.756Z,18.72
2019-04-07T11:11:49.777Z,18.67
2019-04-07T11:12:50.266Z,18.75
2019-04-07T11:13:50.003Z,18.60
2019-04-07T11:14:50.138Z,19.19
2019-04-07T11:15:49.873Z,19.58
2019-04-07T11:16:49.939Z,19.37
2019-04-07T11:17:50.565Z,19.37
2019-04-07T11:18:50.394Z,19.95
2019-04-07T11:19:51.350Z,20.01
2019-04-07T11:20:49.658Z,20.13
2019-04-07T11:21:50.432Z,19.80
2019-04-07T11:22:50.136Z,19.66
2019-04-07T11:23:49.784Z,19.50
2019-04-07T11:24:49.648Z,19.39
2019-04-07T11:25:49.600Z,19.29
2019-04-07T11:26:50.793Z,19.06
2019-04-07T11:27:50.510Z,18.84
2019-04-07T11:28:50.012Z,18.85
2019-04-07T11:29:49.730Z,18.80
2019-04-07T11:30:49.725Z,18.66
2019-04-07T11:31:49.569Z,18.48
2019-04-07T11:32:49.826Z,18.52
2019-04-07T11:33:50.364Z,18.48
2019-04-07T11:34:49.651Z,18.35
2019-04-07T11:35:49.496Z,18.73
2019-04-07T11:36:50.233Z,19.32
2019-04-07T11:37:51.723Z,19.78
2019-04-07T11:38:49.520Z,20.17
2019-04-07T11:39:50.541Z,20.29
2019-04-07T11:40:51.183Z,20.43
2019-04-07T11:41:49.598Z,20.94
2019-04-07T11:42:50.685Z,20.70
2019-04-07T11:43:50.173Z,20.29
2019-04-07T11:44:49.867Z,20.26
2019-04-07T11:45:58.429Z,20.58
2019-04-07T11:46:50.873Z,20.39
2019-04-07T11:47:49.383Z,20.64
2019-04-07T11:48:49.421Z,20.38
2019-04-07T11:49:49.662Z,20.24
2019-04-07T11:50:50.499Z,20.66
2019-04-07T11:51:49.369Z,21.10
2019-04-07T11:52:49.483Z,20.92
2019-04-07T11:53:50.201Z,20.51
2019-04-07T11:54:51.079Z,20.73
2019-04-07T11:55:49.409Z,20.24
2019-04-07T11:56:50.022Z,19.87
2019-04-07T11:58:03.627Z,19.56
2019-04-07T11:58:50.265Z,20.39
2019-04-07T11:59:50.158Z,20.36
2019-04-07T12:00:49.237Z,20.10
2019-04-07T12:01:50.984Z,19.92
2019-04-07T12:02:51.576Z,20.67
2019-04-07T12:03:49.222Z,21.24
2019-04-07T12:04:49.994Z,21.50
2019-04-07T12:05:49.567Z,21.65
2019-04-07T12:06:49.808Z,21.98
2019-04-07T12:07:54.003Z,21.61
2019-04-07T12:08:50.332Z,20.66
2019-04-07T12:09:49.244Z,20.05
2019-04-07T12:10:58.693Z,20.47
2019-04-07T12:11:50.355Z,20.48
2019-04-07T12:12:49.451Z,20.36
2019-04-07T12:13:49.917Z,20.74
2019-04-07T12:14:52.176Z,21.07
2019-04-07T12:15:50.781Z,21.01
2019-04-07T12:16:49.231Z,20.92
2019-04-07T12:17:49.229Z,21.49
2019-04-07T12:18:51.355Z,21.68
2019-04-07T12:19:49.341Z,21.79
2019-04-07T12:20:49.067Z,21.75
2019-04-07T12:21:49.295Z,22.02
2019-04-07T12:22:49.926Z,21.99
2019-04-07T12:23:52.078Z,21.86
2019-04-07T12:24:49.138Z,21.68
2019-04-07T12:25:49.119Z,21.09
2019-04-07T12:26:48.976Z,20.54
2019-04-07T12:27:49.019Z,20.47
2019-04-07T12:28:50.345Z,20.26
2019-04-07T12:29:48.933Z,20.79
2019-04-07T12:30:48.974Z,21.01
2019-04-07T12:31:48.913Z,21.80
2019-04-07T12:32:49.801Z,21.90
2019-04-07T12:33:48.910Z,22.52
2019-04-07T12:34:49.813Z,22.62
2019-04-07T12:35:51.680Z,22.57
2019-04-07T12:36:50.009Z,22.17
2019-04-07T12:37:49.134Z,22.09
2019-04-07T12:38:48.841Z,22.21
2019-04-07T12:39:50.942Z,22.77
2019-04-07T12:40:51.000Z,22.51
2019-04-07T12:41:50.058Z,22.73
2019-04-07T12:42:48.830Z,22.12
2019-04-07T12:43:50.516Z,21.84
2019-04-07T12:44:49.515Z,21.62
2019-04-07T12:45:50.004Z,21.34
2019-04-07T12:46:49.659Z,22.05
2019-04-07T12:47:49.316Z,22.03
2019-04-07T12:48:50.068Z,22.22
2019-04-07T12:49:48.822Z,22.54
2019-04-07T12:50:49.918Z,22.80
2019-04-07T12:51:52.449Z,22.18
2019-04-07T12:52:50.486Z,21.72
2019-04-07T12:53:49.022Z,21.68
2019-04-07T12:54:48.668Z,21.14
2019-04-07T12:55:54.990Z,21.27
2019-04-07T12:56:49.752Z,21.32
2019-04-07T12:57:48.674Z,21.35
2019-04-07T12:58:48.632Z,20.87
2019-04-07T12:59:51.094Z,21.13
2019-04-07T13:00:57.803Z,21.17
2019-04-07T13:01:49.711Z,21.31